Time;durP1;ratioP1;P1;durP2;ratioP2;P2;SDS_P1;SDS_P2;PMS_P1;PMS_P2;Temp;Humidity;BMP_temperature;BMP_pressure;BME280_temperature;BME280_humidity;BME280_pressure;Samples;Min_cycle;Max_cycle;Signal;HPM_P1;HPM_P2
2023/11/21 00:01:04;;;;;;;55.80;24.90;;;12.00;99.90;;;;;;7289912;19;20221;-91
2023/11/21 00:03:30;;;;;;;54.17;24.73;;;11.90;99.90;;;;;;7288702;19;20191;-91
2023/11/21 00:05:56;;;;;;;51.67;22.57;;;11.90;99.90;;;;;;7289065;19;20213;-90
2023/11/21 00:08:21;;;;;;;48.37;24.13;;;11.90;99.90;;;;;;7305193;19;20185;-89
2023/11/21 00:10:48;;;;;;;48.03;23.60;;;11.90;99.90;;;;;;7302412;19;20207;-92
2023/11/21 00:13:14;;;;;;;51.03;24.13;;;11.90;99.90;;;;;;7290289;19;20190;-91
2023/11/21 00:15:40;;;;;;;47.60;22.90;;;11.90;99.90;;;;;;7310820;19;20284;-91
2023/11/21 00:18:06;;;;;;;50.53;23.93;;;11.80;99.90;;;;;;7290564;19;20652;-91
2023/11/21 00:20:32;;;;;;;57.10;25.63;;;11.80;99.90;;;;;;7290160;19;20578;-91
2023/11/21 00:22:59;;;;;;;51.33;24.53;;;11.70;99.90;;;;;;7289163;19;20204;-91
2023/11/21 00:25:25;;;;;;;49.37;23.80;;;11.70;99.90;;;;;;7288716;19;20316;-90
2023/11/21 00:27:51;;;;;;;49.60;23.70;;;11.70;99.90;;;;;;7311756;19;20196;-90
2023/11/21 00:30:17;;;;;;;45.27;22.93;;;11.70;99.90;;;;;;7290826;19;20181;-91
2023/11/21 00:32:43;;;;;;;51.63;25.13;;;11.70;99.90;;;;;;7290428;19;20274;-89
2023/11/21 00:35:09;;;;;;;53.67;25.17;;;11.70;99.90;;;;;;7290296;19;20200;-90
2023/11/21 00:37:34;;;;;;;54.97;25.63;;;11.60;99.90;;;;;;7290200;19;20192;-91
2023/11/21 00:40:04;;;;;;;51.03;23.73;;;11.60;99.90;;;;;;7285745;19;20186;-91
2023/11/21 00:42:33;;;;;;;52.07;23.10;;;11.40;99.90;;;;;;7287597;19;20193;-91
2023/11/21 00:44:59;;;;;;;53.07;23.20;;;11.30;99.90;;;;;;7288984;19;20200;-90
2023/11/21 00:47:25;;;;;;;55.60;24.83;;;11.20;99.90;;;;;;7290255;19;20240;-90
2023/11/21 00:49:51;;;;;;;53.43;24.77;;;11.20;99.90;;;;;;7310629;19;20745;-91
2023/11/21 00:52:16;;;;;;;51.30;24.07;;;11.10;99.90;;;;;;7290388;19;20186;-91
2023/11/21 00:54:42;;;;;;;54.23;24.87;;;11.00;99.90;;;;;;7289550;19;20257;-91
2023/11/21 00:57:08;;;;;;;57.73;24.17;;;10.90;99.90;;;;;;7289614;19;20648;-91
2023/11/21 00:59:34;;;;;;;57.37;24.77;;;10.90;99.90;;;;;;7289596;19;20206;-90
2023/11/21 01:02:01;;;;;;;54.60;24.67;;;10.90;99.90;;;;;;7285098;19;20179;-90
2023/11/21 01:04:27;;;;;;;56.10;25.53;;;10.70;99.90;;;;;;7286272;19;20254;-90
2023/11/21 01:06:53;;;;;;;54.23;23.60;;;10.60;99.90;;;;;;7287966;19;20574;-90
2023/11/21 01:09:19;;;;;;;51.97;23.93;;;10.50;99.90;;;;;;7309006;19;20199;-91
2023/11/21 01:11:46;;;;;;;49.60;23.60;;;10.50;99.90;;;;;;7288057;19;20208;-91
2023/11/21 01:14:13;;;;;;;55.97;25.37;;;10.40;99.90;;;;;;7288003;19;20321;-90
2023/11/21 01:16:39;;;;;;;58.67;25.40;;;10.40;99.90;;;;;;7287286;19;20242;-91
2023/11/21 01:19:04;;;;;;;62.03;25.93;;;10.50;99.90;;;;;;7287304;19;20195;-91
2023/11/21 01:21:31;;;;;;;68.97;27.87;;;10.60;99.90;;;;;;7287184;19;20220;-91
2023/11/21 01:23:57;;;;;;;67.37;27.07;;;10.70;99.90;;;;;;7287330;19;20267;-90
2023/11/21 01:26:23;;;;;;;65.20;27.27;;;10.90;99.90;;;;;;7294513;19;20298;-91
2023/11/21 01:28:48;;;;;;;67.03;27.50;;;10.90;99.90;;;;;;7309786;19;20198;-91
2023/11/21 01:31:15;;;;;;;69.37;27.57;;;10.80;99.90;;;;;;7287295;19;20224;-91
2023/11/21 01:33:41;;;;;;;61.03;26.97;;;10.90;99.90;;;;;;7287103;19;20208;-90
2023/11/21 01:36:07;;;;;;;59.87;26.70;;;11.00;99.90;;;;;;7287105;19;20184;-91
2023/11/21 01:38:33;;;;;;;68.37;27.00;;;10.90;99.90;;;;;;7286852;19;20196;-91
2023/11/21 01:41:00;;;;;;;63.50;26.97;;;10.90;99.90;;;;;;7301954;19;20179;-90
2023/11/21 01:43:27;;;;;;;61.40;27.37;;;11.00;99.90;;;;;;7298902;19;20195;-91
2023/11/21 01:45:56;;;;;;;61.13;26.80;;;11.10;99.90;;;;;;7295302;19;20189;-91
2023/11/21 01:48:23;;;;;;;56.07;26.03;;;11.00;99.90;;;;;;7299915;19;20180;-90
2023/11/21 01:50:49;;;;;;;55.50;25.47;;;11.00;99.90;;;;;;7309251;19;20194;-91
2023/11/21 01:53:15;;;;;;;57.07;23.73;;;11.00;99.90;;;;;;7287038;19;20203;-91
2023/11/21 01:55:43;;;;;;;52.47;25.53;;;11.00;99.90;;;;;;7285791;19;20184;-91
2023/11/21 01:58:11;;;;;;;59.07;26.77;;;11.10;99.90;;;;;;7286211;19;20187;-91
2023/11/21 02:00:38;;;;;;;57.97;25.80;;;11.20;99.90;;;;;;7286659;19;20708;-92
2023/11/21 02:03:04;;;;;;;56.27;26.40;;;11.30;99.90;;;;;;7286001;19;20252;-91
2023/11/21 02:05:30;;;;;;;60.20;24.23;;;11.40;99.90;;;;;;7285626;19;20223;-90
2023/11/21 02:07:57;;;;;;;49.27;22.97;;;11.50;99.90;;;;;;7286862;19;20252;-91
2023/11/21 02:10:24;;;;;;;49.80;23.57;;;11.50;99.90;;;;;;7291019;19;20200;-90
2023/11/21 02:12:50;;;;;;;52.73;23.97;;;11.40;99.90;;;;;;7309560;19;20700;-91
2023/11/21 02:15:20;;;;;;;48.37;22.90;;;11.50;99.90;;;;;;7286819;19;20183;-91
2023/11/21 02:17:47;;;;;;;53.83;24.70;;;11.50;99.90;;;;;;7286621;19;20213;-91
2023/11/21 02:20:17;;;;;;;54.87;25.57;;;11.50;99.90;;;;;;7286409;19;20189;-90
2023/11/21 02:22:45;;;;;;;48.37;25.13;;;11.50;99.90;;;;;;7286437;19;20200;-91
2023/11/21 02:25:11;;;;;;;52.53;23.50;;;11.50;99.90;;;;;;7285857;19;20540;-92
2023/11/21 02:27:37;;;;;;;47.77;23.40;;;11.50;99.90;;;;;;7284721;19;20188;-91
2023/11/21 02:30:04;;;;;;;50.03;22.90;;;11.40;99.90;;;;;;7285712;19;20193;-90
2023/11/21 02:32:31;;;;;;;51.20;22.57;;;11.40;99.90;;;;;;7286090;19;20190;-90
2023/11/21 02:35:07;;;;;;;46.13;23.43;;;11.40;99.90;;;;;;7285583;19;20196;-90
2023/11/21 02:37:33;;;;;;;50.23;23.63;;;11.50;99.90;;;;;;7286356;19;20260;-91
2023/11/21 02:39:59;;;;;;;46.33;23.47;;;11.60;99.90;;;;;;7286510;19;20194;-90
2023/11/21 02:42:25;;;;;;;56.33;25.50;;;11.70;99.90;;;;;;7284588;19;20188;-90
2023/11/21 02:44:50;;;;;;;56.63;26.03;;;11.70;99.90;;;;;;7303492;19;20193;-90
2023/11/21 02:47:16;;;;;;;59.40;27.57;;;11.80;99.90;;;;;;7285462;19;20180;-91
2023/11/21 02:49:42;;;;;;;55.17;25.57;;;11.80;99.90;;;;;;7284096;19;20264;-89
2023/11/21 02:52:09;;;;;;;56.97;27.27;;;11.80;99.90;;;;;;7283793;19;20188;-91
2023/11/21 02:54:36;;;;;;;53.43;25.10;;;11.60;99.90;;;;;;7285856;19;20322;-91
2023/11/21 02:57:02;;;;;;;51.77;26.27;;;11.40;99.90;;;;;;7284910;19;20191;-90
2023/11/21 02:59:29;;;;;;;58.30;27.83;;;11.20;99.90;;;;;;7285562;19;20659;-91
2023/11/21 03:01:56;;;;;;;52.00;26.10;;;11.10;99.90;;;;;;7285700;19;20184;-90
2023/11/21 03:04:23;;;;;;;56.13;26.77;;;11.20;99.90;;;;;;7291091;19;20194;-90
2023/11/21 03:06:49;;;;;;;55.33;27.13;;;11.20;99.90;;;;;;7307347;19;20741;-89
2023/11/21 03:09:16;;;;;;;58.57;27.53;;;11.30;99.90;;;;;;7309845;19;20261;-91
2023/11/21 03:11:41;;;;;;;59.83;28.67;;;11.40;99.90;;;;;;7284569;19;20204;-90
2023/11/21 03:14:07;;;;;;;55.70;26.70;;;11.40;99.90;;;;;;7284142;19;20188;-91
2023/11/21 03:16:33;;;;;;;55.23;27.73;;;11.50;99.90;;;;;;7284661;19;20184;-90
2023/11/21 03:18:59;;;;;;;54.97;28.57;;;11.50;99.90;;;;;;7285361;19;20713;-90
2023/11/21 03:21:26;;;;;;;53.77;28.07;;;11.60;99.90;;;;;;7284825;19;20195;-90
2023/11/21 03:23:52;;;;;;;50.90;27.37;;;11.60;99.90;;;;;;7305888;19;20181;-91
2023/11/21 03:26:18;;;;;;;52.73;26.60;;;11.60;99.90;;;;;;7290475;19;20360;-91
2023/11/21 03:28:46;;;;;;;49.40;26.23;;;11.60;99.90;;;;;;7290936;19;20194;-91
2023/11/21 03:31:11;;;;;;;51.63;26.93;;;11.70;99.90;;;;;;7291048;19;21371;-90
2023/11/21 03:33:37;;;;;;;50.10;25.47;;;11.60;99.90;;;;;;7292364;19;20529;-91
2023/11/21 03:36:03;;;;;;;45.50;25.30;;;11.60;99.90;;;;;;7292687;19;20217;-90
2023/11/21 03:38:29;;;;;;;52.67;26.17;;;11.50;99.90;;;;;;7290431;19;20214;-91
2023/11/21 03:40:56;;;;;;;47.43;26.10;;;11.50;99.90;;;;;;7290093;19;20193;-90
2023/11/21 03:43:21;;;;;;;48.93;26.10;;;11.50;99.90;;;;;;7313746;19;20213;-90
2023/11/21 03:45:48;;;;;;;57.40;26.83;;;11.50;99.90;;;;;;7291274;19;20221;-91
2023/11/21 03:48:14;;;;;;;47.87;25.87;;;11.50;99.90;;;;;;7289472;19;20334;-91
2023/11/21 03:50:40;;;;;;;49.87;26.33;;;11.50;99.90;;;;;;7292080;19;20204;-90
2023/11/21 03:53:06;;;;;;;46.37;26.43;;;11.50;99.90;;;;;;7290340;19;20185;-90
2023/11/21 03:55:31;;;;;;;54.33;25.30;;;11.50;99.90;;;;;;7290582;19;20188;-90
2023/11/21 03:57:58;;;;;;;49.77;25.00;;;11.60;99.90;;;;;;7288417;19;20195;-90
2023/11/21 04:00:26;;;;;;;54.90;25.83;;;11.60;99.90;;;;;;7290282;19;20209;-90
2023/11/21 04:02:53;;;;;;;54.00;26.33;;;11.60;99.90;;;;;;7307676;19;20207;-87
2023/11/21 04:05:21;;;;;;;48.67;24.87;;;11.60;99.90;;;;;;7306010;19;20192;-91
2023/11/21 04:07:52;;;;;;;47.20;24.80;;;11.60;99.90;;;;;;7289297;19;20276;-82
2023/11/21 04:10:18;;;;;;;44.47;24.63;;;11.60;99.90;;;;;;7287317;19;20209;-82
2023/11/21 04:12:44;;;;;;;47.17;25.60;;;11.70;99.90;;;;;;7287827;19;20205;-82
2023/11/21 04:15:10;;;;;;;45.60;25.73;;;11.80;99.90;;;;;;7287142;19;20203;-82
2023/11/21 04:17:36;;;;;;;49.90;25.40;;;11.80;99.90;;;;;;7287158;19;20189;-82
2023/11/21 04:20:09;;;;;;;47.67;24.73;;;11.80;99.90;;;;;;7286704;19;20259;-82
2023/11/21 04:22:43;;;;;;;48.27;25.13;;;11.80;99.90;;;;;;7285892;19;20200;-82
2023/11/21 04:25:13;;;;;;;44.90;24.23;;;11.80;99.90;;;;;;7286707;19;20195;-82
2023/11/21 04:27:40;;;;;;;45.03;22.33;;;11.70;99.90;;;;;;7287558;19;20266;-82
2023/11/21 04:30:06;;;;;;;43.37;24.27;;;11.70;99.90;;;;;;7286489;19;20189;-82
2023/11/21 04:32:32;;;;;;;46.53;24.40;;;11.80;99.90;;;;;;7286809;19;20319;-82
2023/11/21 04:34:58;;;;;;;43.60;24.73;;;11.80;99.90;;;;;;7288192;19;20684;-82
2023/11/21 04:37:24;;;;;;;50.07;26.33;;;11.90;99.90;;;;;;7286374;19;20208;-82
2023/11/21 04:39:50;;;;;;;48.93;24.47;;;11.90;99.90;;;;;;7308891;19;20181;-83
2023/11/21 04:42:15;;;;;;;45.97;26.47;;;11.90;99.90;;;;;;7285738;19;20667;-81
2023/11/21 04:44:41;;;;;;;48.07;25.43;;;11.90;99.90;;;;;;7286675;19;20188;-82
2023/11/21 04:47:07;;;;;;;45.57;24.63;;;11.90;99.90;;;;;;7288898;19;20192;-82
2023/11/21 04:49:33;;;;;;;47.60;25.20;;;11.70;99.90;;;;;;7286159;19;20207;-82
2023/11/21 04:51:59;;;;;;;43.47;24.73;;;11.60;99.90;;;;;;7285247;19;20205;-82
2023/11/21 04:54:25;;;;;;;49.97;24.10;;;11.50;99.90;;;;;;7284842;19;20189;-82
2023/11/21 04:56:51;;;;;;;47.80;24.17;;;11.40;99.90;;;;;;7308755;19;20184;-82
2023/11/21 04:59:16;;;;;;;49.07;23.43;;;11.30;99.90;;;;;;7286167;19;20718;-82
2023/11/21 05:01:42;;;;;;;44.07;23.93;;;11.40;99.90;;;;;;7285856;19;20277;-82
2023/11/21 05:04:08;;;;;;;48.90;24.67;;;11.30;99.90;;;;;;7285762;19;20202;-82
2023/11/21 05:06:34;;;;;;;44.90;23.50;;;11.40;99.90;;;;;;7284736;19;20252;-82
2023/11/21 05:09:00;;;;;;;49.73;24.00;;;11.50;99.90;;;;;;7286560;19;20195;-82
2023/11/21 05:11:27;;;;;;;41.47;23.03;;;11.50;99.90;;;;;;7285837;19;20269;-82
2023/11/21 05:13:53;;;;;;;46.03;23.37;;;11.50;99.90;;;;;;7302942;19;20185;-82
2023/11/21 05:16:19;;;;;;;46.90;23.57;;;11.60;99.90;;;;;;7300538;19;20177;-82
2023/11/21 05:18:45;;;;;;;50.33;25.13;;;11.70;99.90;;;;;;7286061;19;20186;-82
2023/11/21 05:21:11;;;;;;;45.17;23.97;;;11.80;99.90;;;;;;7284827;19;20196;-82
2023/11/21 05:23:37;;;;;;;47.67;23.27;;;11.90;99.90;;;;;;7285042;19;20252;-82
2023/11/21 05:26:03;;;;;;;40.47;22.43;;;11.80;99.90;;;;;;7285730;19;20189;-83
2023/11/21 05:28:29;;;;;;;37.77;22.07;;;11.80;99.90;;;;;;7284944;19;20847;-82
2023/11/21 05:30:54;;;;;;;38.83;21.23;;;11.80;99.90;;;;;;7285451;19;20788;-82
2023/11/21 05:33:20;;;;;;;43.10;22.77;;;11.80;99.90;;;;;;7307099;19;20256;-82
2023/11/21 05:35:48;;;;;;;41.13;22.70;;;11.90;99.90;;;;;;7283830;19;20298;-82
2023/11/21 05:38:14;;;;;;;41.87;21.53;;;11.90;99.90;;;;;;7285087;19;20178;-82
2023/11/21 05:40:40;;;;;;;43.10;21.57;;;11.90;99.90;;;;;;7285782;19;20266;-83
2023/11/21 05:43:06;;;;;;;41.53;21.13;;;11.90;99.90;;;;;;7284288;19;20197;-82
2023/11/21 05:45:32;;;;;;;38.03;20.40;;;12.00;99.90;;;;;;7283619;19;20192;-82
2023/11/21 05:47:59;;;;;;;44.40;21.77;;;12.00;99.90;;;;;;7283492;19;20185;-82
2023/11/21 05:50:24;;;;;;;48.93;22.90;;;11.90;99.90;;;;;;7282829;19;20195;-82
2023/11/21 05:52:50;;;;;;;46.83;22.20;;;11.90;99.90;;;;;;7307504;19;20184;-82
2023/11/21 05:55:16;;;;;;;47.13;22.93;;;12.00;99.90;;;;;;7283075;19;20185;-83
2023/11/21 05:57:43;;;;;;;46.07;22.87;;;12.00;99.90;;;;;;7285343;19;21470;-83
2023/11/21 06:00:18;;;;;;;40.77;21.73;;;12.00;99.90;;;;;;7287945;19;20189;-86
2023/11/21 06:02:45;;;;;;;43.43;22.70;;;12.10;99.90;;;;;;7287881;19;20285;-81
2023/11/21 06:05:10;;;;;;;46.10;22.93;;;12.00;99.90;;;;;;7284568;19;20225;-82
2023/11/21 06:07:37;;;;;;;42.83;22.93;;;12.00;99.90;;;;;;7284052;19;20643;-81
2023/11/21 06:10:09;;;;;;;42.47;22.37;;;12.00;99.90;;;;;;7284121;19;20193;-81
2023/11/21 06:12:35;;;;;;;49.70;22.43;;;12.00;99.90;;;;;;7284244;19;20316;-82
2023/11/21 06:15:07;;;;;;;43.90;22.50;;;12.00;99.90;;;;;;7282808;19;20193;-82
2023/11/21 06:17:35;;;;;;;41.40;21.60;;;12.00;99.90;;;;;;7283779;19;20199;-81
2023/11/21 06:20:00;;;;;;;43.75;24.40;;;12.00;99.90;;;;;;7283057;19;21505;-82
2023/11/21 06:22:26;;;;;;;46.30;23.37;;;11.90;99.90;;;;;;7284634;19;20211;-83
2023/11/21 06:24:52;;;;;;;52.23;24.40;;;11.90;99.90;;;;;;7306663;19;20189;-82
2023/11/21 06:27:18;;;;;;;48.60;23.57;;;12.00;99.90;;;;;;7284966;19;20701;-81
2023/11/21 06:29:43;;;;;;;40.97;21.80;;;12.00;99.90;;;;;;7284026;19;20190;-82
2023/11/21 06:32:09;;;;;;;39.20;21.77;;;12.10;99.90;;;;;;7283904;19;20185;-82
2023/11/21 06:34:35;;;;;;;42.27;22.10;;;12.00;99.90;;;;;;7283662;19;20206;-82
2023/11/21 06:37:03;;;;;;;43.03;23.23;;;12.10;99.90;;;;;;7282506;19;20199;-82
2023/11/21 06:39:29;;;;;;;44.27;21.43;;;12.00;99.90;;;;;;7284560;19;20729;-82
2023/11/21 06:41:55;;;;;;;35.50;21.30;;;12.10;99.90;;;;;;7284491;19;20200;-83
2023/11/21 06:44:20;;;;;;;40.30;20.20;;;12.10;99.90;;;;;;7305373;19;20188;-82
2023/11/21 06:46:46;;;;;;;43.13;21.93;;;12.10;99.90;;;;;;7282713;19;20674;-83
2023/11/21 06:49:12;;;;;;;44.17;23.30;;;12.10;99.90;;;;;;7288043;19;20216;-83
2023/11/21 06:51:38;;;;;;;45.90;22.97;;;12.20;99.90;;;;;;7290712;19;20188;-80
2023/11/21 06:54:04;;;;;;;43.93;22.53;;;12.20;99.90;;;;;;7289327;19;20198;-81
2023/11/21 06:56:30;;;;;;;41.60;22.50;;;12.20;99.90;;;;;;7289470;19;20296;-81
2023/11/21 06:58:56;;;;;;;53.70;24.20;;;12.20;99.90;;;;;;7286323;19;20194;-81
2023/11/21 07:01:22;;;;;;;51.40;24.83;;;12.30;99.90;;;;;;7308778;19;21230;-79
2023/11/21 07:03:48;;;;;;;49.80;23.97;;;12.30;99.90;;;;;;7290998;19;20189;-82
2023/11/21 07:06:13;;;;;;;43.77;23.67;;;12.40;99.90;;;;;;7288427;19;20180;-78
2023/11/21 07:08:39;;;;;;;45.27;22.60;;;12.30;99.90;;;;;;7290362;19;20652;-79
2023/11/21 07:11:05;;;;;;;41.97;23.30;;;12.20;99.90;;;;;;7288343;19;20188;-79
2023/11/21 07:13:30;;;;;;;44.93;22.90;;;12.10;99.90;;;;;;7289957;19;20186;-79
2023/11/21 07:15:59;;;;;;;43.13;23.03;;;12.10;99.90;;;;;;7289723;19;20904;-79
2023/11/21 07:18:24;;;;;;;40.63;22.17;;;12.20;99.90;;;;;;7289519;19;20188;-79
2023/11/21 07:20:50;;;;;;;44.90;23.27;;;12.30;99.90;;;;;;7311321;19;20196;-79
2023/11/21 07:23:16;;;;;;;38.77;22.77;;;12.20;99.90;;;;;;7289257;19;20715;-79
2023/11/21 07:25:43;;;;;;;37.33;22.33;;;12.20;99.90;;;;;;7288698;19;20640;-79
2023/11/21 07:28:09;;;;;;;52.80;23.60;;;12.30;99.90;;;;;;7288136;19;20203;-79
2023/11/21 07:30:35;;;;;;;44.97;23.57;;;12.30;99.90;;;;;;7289001;19;20769;-79
2023/11/21 07:33:00;;;;;;;49.13;24.20;;;12.40;99.90;;;;;;7288337;19;20177;-79
2023/11/21 07:35:26;;;;;;;47.43;24.17;;;12.50;99.90;;;;;;7288967;19;20193;-79
2023/11/21 07:37:52;;;;;;;49.20;25.47;;;12.50;99.90;;;;;;7312988;19;20187;-78
2023/11/21 07:40:18;;;;;;;52.77;25.37;;;12.50;99.90;;;;;;7289613;19;20251;-79
2023/11/21 07:42:44;;;;;;;56.80;25.00;;;12.50;99.90;;;;;;7288825;19;20217;-78
2023/11/21 07:45:11;;;;;;;59.10;26.03;;;12.60;99.90;;;;;;7287195;19;20252;-78
2023/11/21 07:47:38;;;;;;;56.20;26.80;;;12.70;99.90;;;;;;7288316;19;20190;-78
2023/11/21 07:50:07;;;;;;;60.60;26.53;;;12.80;99.90;;;;;;7289239;19;20649;-78
2023/11/21 07:52:33;;;;;;;58.90;27.53;;;12.80;99.90;;;;;;7287522;19;20185;-78
2023/11/21 07:54:59;;;;;;;73.73;27.57;;;12.80;99.90;;;;;;7287356;19;20655;-79
2023/11/21 07:57:26;;;;;;;69.50;28.17;;;12.80;99.90;;;;;;7287836;19;20182;-78
2023/11/21 07:59:53;;;;;;;62.27;28.27;;;12.80;99.90;;;;;;7310070;19;20701;-78
2023/11/21 08:02:19;;;;;;;73.10;29.27;;;12.90;99.90;;;;;;7288316;19;20290;-79
2023/11/21 08:04:45;;;;;;;57.93;28.33;;;12.90;99.90;;;;;;7287255;19;20211;-79
2023/11/21 08:07:10;;;;;;;59.70;28.37;;;12.90;99.90;;;;;;7286856;19;20192;-78
2023/11/21 08:09:36;;;;;;;68.87;28.47;;;12.70;99.90;;;;;;7289047;19;20647;-79
2023/11/21 08:12:02;;;;;;;70.33;30.60;;;12.70;99.90;;;;;;7286570;19;20213;-79
2023/11/21 08:14:28;;;;;;;71.53;28.83;;;12.80;99.90;;;;;;7287763;19;20569;-79
2023/11/21 08:16:57;;;;;;;80.33;30.30;;;12.70;99.90;;;;;;7295097;19;20208;-79
2023/11/21 08:19:24;;;;;;;74.47;29.57;;;12.70;99.90;;;;;;7308550;19;20691;-79
2023/11/21 08:21:51;;;;;;;75.43;30.27;;;12.80;99.90;;;;;;7309618;19;20285;-79
2023/11/21 08:24:16;;;;;;;75.07;31.13;;;12.90;99.90;;;;;;7287406;19;20724;-78
2023/11/21 08:26:43;;;;;;;80.70;29.63;;;12.90;99.90;;;;;;7285583;19;26312;-78
2023/11/21 08:29:08;;;;;;;70.57;30.97;;;12.90;99.90;;;;;;7287066;19;20547;-78
2023/11/21 08:31:34;;;;;;;67.50;28.50;;;13.00;99.90;;;;;;7287349;19;20184;-79
2023/11/21 08:34:01;;;;;;;69.73;30.57;;;13.00;99.90;;;;;;7285588;19;20185;-79
2023/11/21 08:36:27;;;;;;;70.93;30.10;;;13.00;99.90;;;;;;7286228;19;20195;-79
2023/11/21 08:38:53;;;;;;;73.40;32.27;;;13.10;99.90;;;;;;7303335;19;20689;-78
2023/11/21 08:41:21;;;;;;;72.13;30.47;;;13.20;99.90;;;;;;7298146;19;20731;-79
2023/11/21 08:43:49;;;;;;;72.10;29.57;;;13.20;99.90;;;;;;7286480;19;20210;-78
2023/11/21 08:46:16;;;;;;;75.30;31.40;;;13.20;99.90;;;;;;7285434;19;20194;-78
2023/11/21 08:48:43;;;;;;;72.60;30.87;;;13.20;99.90;;;;;;7286741;19;20637;-79
2023/11/21 08:51:14;;;;;;;68.50;29.40;;;13.10;99.90;;;;;;7288007;19;20686;-79
2023/11/21 08:53:39;;;;;;;71.03;31.20;;;13.10;99.90;;;;;;7287265;19;20189;-79
2023/11/21 08:56:06;;;;;;;65.77;30.13;;;13.10;99.90;;;;;;7284158;19;20210;-79
2023/11/21 08:58:32;;;;;;;66.93;29.97;;;13.00;99.90;;;;;;7286979;19;20549;-78
2023/11/21 09:00:58;;;;;;;75.23;31.17;;;13.00;99.90;;;;;;7287704;19;20181;-78
2023/11/21 09:03:24;;;;;;;71.47;30.03;;;13.10;99.90;;;;;;7295625;19;20525;-79
2023/11/21 09:05:50;;;;;;;64.87;29.27;;;13.20;99.90;;;;;;7306851;19;20185;-78
2023/11/21 09:08:16;;;;;;;65.27;29.37;;;13.30;99.90;;;;;;7283680;19;20858;-79
2023/11/21 09:10:45;;;;;;;63.57;28.43;;;13.40;99.90;;;;;;7286626;19;20201;-79
2023/11/21 09:13:10;;;;;;;52.30;26.53;;;13.40;99.90;;;;;;7285278;19;20653;-78
2023/11/21 09:15:36;;;;;;;66.43;28.53;;;13.40;99.90;;;;;;7284997;19;20218;-79
2023/11/21 09:18:02;;;;;;;68.93;28.80;;;13.40;99.90;;;;;;7284295;19;20189;-79
2023/11/21 09:20:28;;;;;;;62.23;28.10;;;13.40;99.90;;;;;;7284600;19;20684;-78
2023/11/21 09:22:55;;;;;;;67.53;28.47;;;13.40;99.90;;;;;;7295292;19;20188;-79
2023/11/21 09:25:21;;;;;;;61.50;28.50;;;13.40;99.90;;;;;;7306466;19;20185;-78
2023/11/21 09:27:47;;;;;;;58.57;27.33;;;13.40;99.90;;;;;;7286319;19;20178;-79
2023/11/21 09:30:14;;;;;;;55.10;26.07;;;13.40;99.90;;;;;;7285825;19;20186;-79
2023/11/21 09:32:40;;;;;;;52.47;25.60;;;13.50;99.90;;;;;;7285453;19;20184;-79
2023/11/21 09:35:08;;;;;;;65.90;27.50;;;13.60;99.90;;;;;;7283762;19;20194;-78
2023/11/21 09:37:37;;;;;;;56.93;26.97;;;13.70;99.90;;;;;;7283508;19;20194;-78
2023/11/21 09:40:05;;;;;;;59.63;27.23;;;13.70;99.90;;;;;;7284609;19;20182;-79
2023/11/21 09:42:38;;;;;;;59.33;26.83;;;13.70;99.90;;;;;;7283625;19;20184;-78
2023/11/21 09:45:15;;;;;;;53.53;26.23;;;13.60;99.90;;;;;;7283426;19;20290;-79
2023/11/21 09:47:42;;;;;;;59.70;27.17;;;13.50;99.90;;;;;;7284646;19;20256;-79
2023/11/21 09:50:13;;;;;;;64.17;26.87;;;13.60;99.90;;;;;;7283347;19;20207;-79
2023/11/21 09:53:02;;;;;;;62.83;27.03;;;13.60;99.90;;;;;;7286042;19;20189;-79
2023/11/21 09:55:35;;;;;;;60.07;27.73;;;13.60;99.90;;;;;;7263806;19;20185;-78
2023/11/21 09:58:02;;;;;;;61.53;26.87;;;13.70;99.90;;;;;;7283627;19;20186;-79
2023/11/21 10:00:31;;;;;;;68.70;28.00;;;13.70;99.90;;;;;;7282882;19;20189;-79
2023/11/21 10:02:58;;;;;;;59.33;26.90;;;13.60;99.90;;;;;;7286279;19;20248;-79
2023/11/21 10:05:24;;;;;;;65.93;26.80;;;13.70;99.90;;;;;;7293743;19;20300;-78
2023/11/21 10:07:51;;;;;;;59.50;26.97;;;13.70;99.90;;;;;;7304105;19;20216;-79
2023/11/21 10:10:19;;;;;;;59.70;27.13;;;13.80;99.90;;;;;;7284062;19;20271;-79
2023/11/21 10:12:53;;;;;;;58.03;25.80;;;13.80;99.90;;;;;;7284088;19;20185;-79
2023/11/21 10:15:21;;;;;;;71.33;29.47;;;13.90;99.90;;;;;;7284051;19;20197;-79
2023/11/21 10:17:49;;;;;;;76.23;31.40;;;14.00;99.90;;;;;;7284649;19;20542;-78
2023/11/21 10:20:15;;;;;;;76.67;31.93;;;13.90;99.90;;;;;;7284681;19;20194;-79
2023/11/21 10:22:42;;;;;;;83.07;31.67;;;13.80;99.90;;;;;;7283021;19;20193;-79
2023/11/21 10:25:09;;;;;;;63.43;28.30;;;13.80;99.90;;;;;;7282727;19;20617;-78
2023/11/21 10:27:37;;;;;;;56.30;25.00;;;13.80;99.90;;;;;;7285008;19;20194;-79
2023/11/21 10:30:04;;;;;;;57.70;24.93;;;13.70;99.90;;;;;;7282929;19;20196;-79
2023/11/21 10:32:32;;;;;;;55.63;24.23;;;13.60;99.90;;;;;;7284222;19;20185;-79
2023/11/21 10:35:06;;;;;;;51.87;24.17;;;13.70;99.90;;;;;;7283909;19;20209;-78
2023/11/21 10:37:33;;;;;;;45.80;21.80;;;13.70;99.90;;;;;;7283218;19;20589;-78
2023/11/21 10:39:59;;;;;;;42.77;20.67;;;13.90;99.90;;;;;;7281637;19;20188;-78
2023/11/21 10:42:25;;;;;;;45.60;20.73;;;14.00;99.90;;;;;;7285218;19;20269;-78
2023/11/21 10:44:51;;;;;;;35.57;19.53;;;14.00;99.90;;;;;;7303928;19;20572;-78
2023/11/21 10:47:19;;;;;;;35.10;19.23;;;13.90;99.90;;;;;;7283202;19;20611;-79
2023/11/21 10:49:48;;;;;;;32.53;17.67;;;13.80;99.90;;;;;;7283927;19;20186;-78
2023/11/21 10:52:17;;;;;;;32.43;17.87;;;13.80;99.90;;;;;;7281812;19;20536;-79
2023/11/21 10:54:46;;;;;;;33.70;18.50;;;13.80;99.90;;;;;;7282333;19;20483;-78
2023/11/21 10:57:17;;;;;;;31.57;17.77;;;13.80;99.90;;;;;;7283209;19;20201;-78
2023/11/21 10:59:49;;;;;;;32.83;17.73;;;13.90;99.90;;;;;;7280544;19;20199;-78
2023/11/21 11:02:27;;;;;;;32.07;17.83;;;13.90;99.90;;;;;;7281542;19;20197;-78
2023/11/21 11:04:58;;;;;;;34.77;18.63;;;14.00;99.90;;;;;;7281099;19;20561;-78
2023/11/21 11:07:27;;;;;;;34.90;19.03;;;14.10;99.90;;;;;;7290844;19;20192;-78
2023/11/21 11:09:54;;;;;;;34.93;18.43;;;14.30;99.90;;;;;;7304570;19;20182;-78
2023/11/21 11:12:20;;;;;;;34.47;19.67;;;14.40;99.90;;;;;;7281571;19;20294;-79
2023/11/21 11:14:48;;;;;;;34.97;20.43;;;14.30;99.90;;;;;;7281673;19;20545;-79
2023/11/21 11:17:14;;;;;;;33.73;20.43;;;14.20;99.90;;;;;;7281510;19;20597;-78
2023/11/21 11:19:40;;;;;;;38.30;20.67;;;14.10;99.90;;;;;;7283147;19;20194;-78
2023/11/21 11:22:19;;;;;;;40.53;21.97;;;14.10;99.90;;;;;;7280540;19;20184;-78
2023/11/21 11:24:55;;;;;;;40.07;23.23;;;14.20;99.90;;;;;;7281575;19;20193;-78
2023/11/21 11:27:39;;;;;;;38.93;22.57;;;14.20;99.90;;;;;;7282026;19;20197;-78
2023/11/21 11:30:30;;;;;;;37.17;22.37;;;14.30;99.90;;;;;;7179912;19;2004557;-79
2023/11/21 11:33:14;;;;;;;43.03;23.77;;;14.30;99.90;;;;;;7259331;19;20214;-78
2023/11/21 11:35:47;;;;;;;42.90;23.70;;;14.30;99.90;;;;;;7282561;19;20199;-79
2023/11/21 11:38:13;;;;;;;40.80;23.37;;;14.30;99.90;;;;;;7281917;19;20196;-78
2023/11/21 11:40:45;;;;;;;40.93;23.77;;;14.30;99.90;;;;;;7280183;19;20193;-79
2023/11/21 11:43:11;;;;;;;38.43;22.60;;;14.20;99.90;;;;;;7281938;19;20652;-79
2023/11/21 11:45:51;;;;;;;37.67;22.90;;;14.10;99.90;;;;;;7280931;19;20200;-79
2023/11/21 11:48:21;;;;;;;38.90;23.07;;;14.10;99.90;;;;;;7288142;19;20679;-79
2023/11/21 11:51:11;;;;;;;40.60;22.80;;;14.10;99.90;;;;;;7289797;19;20197;-79
2023/11/21 11:53:41;;;;;;;39.30;22.27;;;14.10;99.90;;;;;;7186254;19;2004449;-78
2023/11/21 11:56:28;;;;;;;32.90;21.87;;;14.20;99.90;;;;;;7288088;19;20197;-78
2023/11/21 11:58:59;;;;;;;37.70;21.47;;;14.20;99.90;;;;;;7283101;19;20190;-79
2023/11/21 12:01:26;;;;;;;38.23;20.70;;;14.10;99.90;;;;;;7297325;19;20203;-78
2023/11/21 12:04:24;;;;;;;27.27;18.40;;;14.10;99.90;;;;;;7310078;19;20206;-78
2023/11/21 12:06:53;;;;;;;28.03;16.97;;;13.90;99.90;;;;;;7185813;19;2004505;-78
2023/11/21 12:09:23;;;;;;;25.70;17.23;;;13.40;99.90;;;;;;7288613;19;20199;-78
2023/11/21 12:11:50;;;;;;;29.10;18.53;;;13.40;99.90;;;;;;7287708;19;20205;-79
2023/11/21 12:14:16;;;;;;;28.93;16.50;;;13.60;99.90;;;;;;7286657;19;20192;-78
2023/11/21 12:16:43;;;;;;;28.20;17.50;;;13.60;99.90;;;;;;7287069;19;20298;-78
2023/11/21 12:19:10;;;;;;;28.23;15.97;;;13.70;99.90;;;;;;7288306;19;20548;-78
2023/11/21 12:21:36;;;;;;;30.33;16.97;;;13.90;99.90;;;;;;7287611;19;20244;-78
2023/11/21 12:24:03;;;;;;;23.60;14.90;;;13.90;99.90;;;;;;7285945;19;20217;-78
2023/11/21 12:26:28;;;;;;;21.97;13.83;;;13.50;99.90;;;;;;7285044;19;20857;-78